sensor_id;sensor_type;location;lat;lon;timestamp;pressure;altitude;pressure_sealevel;temperature;humidity
51687;BME280;37774;52.192;4.584;2023-02-26T00:01:01;102185.16;;;0.76;100.00
51687;BME280;37774;52.192;4.584;2023-02-26T00:03:28;102082.78;;;-0.04;100.00
51687;BME280;37774;52.192;4.584;2023-02-26T00:05:59;102123.00;;;0.31;100.00
51687;BME280;37774;52.192;4.584;2023-02-26T00:08:26;101856.69;;;-1.50;100.00
51687;BME280;37774;52.192;4.584;2023-02-26T00:10:55;101875.50;;;-1.48;100.00
51687;BME280;37774;52.192;4.584;2023-02-26T00:13:23;102214.19;;;0.77;100.00
51687;BME280;37774;52.192;4.584;2023-02-26T00:15:55;102207.94;;;0.71;100.00
51687;BME280;37774;52.192;4.584;2023-02-26T00:18:24;101825.16;;;-1.81;100.00
51687;BME280;37774;52.192;4.584;2023-02-26T00:20:52;102227.53;;;0.71;100.00
51687;BME280;37774;52.192;4.584;2023-02-26T00:23:21;102194.81;;;0.50;100.00
51687;BME280;37774;52.192;4.584;2023-02-26T00:25:49;102228.50;;;0.73;100.00
51687;BME280;37774;52.192;4.584;2023-02-26T00:28:16;101719.47;;;-2.46;100.00
51687;BME280;37774;52.192;4.584;2023-02-26T00:30:43;102147.75;;;0.00;100.00
51687;BME280;37774;52.192;4.584;2023-02-26T00:33:11;102207.81;;;0.38;100.00
51687;BME280;37774;52.192;4.584;2023-02-26T00:35:38;102240.97;;;0.67;100.00
51687;BME280;37774;52.192;4.584;2023-02-26T00:38:06;102252.00;;;0.66;100.00
51687;BME280;37774;52.192;4.584;2023-02-26T00:40:39;102251.78;;;0.78;100.00
51687;BME280;37774;52.192;4.584;2023-02-26T00:43:09;102257.22;;;0.84;100.00
51687;BME280;37774;52.192;4.584;2023-02-26T00:45:44;102261.56;;;0.85;100.00
51687;BME280;37774;52.192;4.584;2023-02-26T00:48:33;102093.56;;;-0.24;100.00
51687;BME280;37774;52.192;4.584;2023-02-26T00:51:09;101975.91;;;-0.88;100.00
51687;BME280;37774;52.192;4.584;2023-02-26T00:53:43;101988.31;;;-0.64;100.00
51687;BME280;37774;52.192;4.584;2023-02-26T00:56:14;102265.22;;;1.05;100.00
51687;BME280;37774;52.192;4.584;2023-02-26T00:58:41;101940.69;;;-0.78;100.00
51687;BME280;37774;52.192;4.584;2023-02-26T01:01:07;102265.88;;;1.17;100.00
51687;BME280;37774;52.192;4.584;2023-02-26T01:03:35;102263.16;;;1.14;100.00
51687;BME280;37774;52.192;4.584;2023-02-26T01:06:03;102151.91;;;0.29;100.00
51687;BME280;37774;52.192;4.584;2023-02-26T01:08:33;102237.16;;;0.60;100.00
51687;BME280;37774;52.192;4.584;2023-02-26T01:11:04;101910.00;;;-1.25;100.00
51687;BME280;37774;52.192;4.584;2023-02-26T01:13:33;101815.47;;;-2.01;100.00
51687;BME280;37774;52.192;4.584;2023-02-26T01:16:05;102238.06;;;0.61;100.00
51687;BME280;37774;52.192;4.584;2023-02-26T01:18:37;102287.78;;;0.81;100.00
51687;BME280;37774;52.192;4.584;2023-02-26T01:21:07;102205.03;;;0.19;100.00
51687;BME280;37774;52.192;4.584;2023-02-26T01:23:40;102303.50;;;0.72;100.00
51687;BME280;37774;52.192;4.584;2023-02-26T01:26:13;101875.63;;;-2.03;100.00
51687;BME280;37774;52.192;4.584;2023-02-26T01:28:43;102107.88;;;-0.56;100.00
51687;BME280;37774;52.192;4.584;2023-02-26T01:31:15;102199.16;;;-0.39;100.00
51687;BME280;37774;52.192;4.584;2023-02-26T01:33:50;102370.28;;;0.47;100.00
51687;BME280;37774;52.192;4.584;2023-02-26T01:36:21;102100.09;;;-0.88;100.00
51687;BME280;37774;52.192;4.584;2023-02-26T01:38:55;102170.06;;;-0.56;100.00
51687;BME280;37774;52.192;4.584;2023-02-26T01:41:30;102354.91;;;0.32;100.00
51687;BME280;37774;52.192;4.584;2023-02-26T01:44:16;102220.28;;;-0.41;100.00
51687;BME280;37774;52.192;4.584;2023-02-26T01:46:59;102328.25;;;0.13;100.00
51687;BME280;37774;52.192;4.584;2023-02-26T01:49:30;102326.84;;;0.03;100.00
51687;BME280;37774;52.192;4.584;2023-02-26T01:51:59;102269.84;;;-0.24;100.00
51687;BME280;37774;52.192;4.584;2023-02-26T01:54:28;102249.50;;;-0.80;100.00
51687;BME280;37774;52.192;4.584;2023-02-26T01:56:59;102360.88;;;0.02;100.00
51687;BME280;37774;52.192;4.584;2023-02-26T01:59:31;102230.13;;;-0.76;100.00
51687;BME280;37774;52.192;4.584;2023-02-26T02:02:02;102331.56;;;-0.03;100.00
51687;BME280;37774;52.192;4.584;2023-02-26T02:04:29;102330.69;;;-0.04;100.00
51687;BME280;37774;52.192;4.584;2023-02-26T02:06:57;102158.72;;;-1.45;100.00
51687;BME280;37774;52.192;4.584;2023-02-26T02:09:24;102194.69;;;-1.13;100.00
51687;BME280;37774;52.192;4.584;2023-02-26T02:12:07;102265.91;;;-0.90;100.00
51687;BME280;37774;52.192;4.584;2023-02-26T02:14:44;102350.34;;;-0.31;100.00
51687;BME280;37774;52.192;4.584;2023-02-26T02:17:13;102352.31;;;-0.40;100.00
51687;BME280;37774;52.192;4.584;2023-02-26T02:23:10;102362.88;;;-0.49;100.00
51687;BME280;37774;52.192;4.584;2023-02-26T02:25:59;102160.69;;;-1.81;100.00
51687;BME280;37774;52.192;4.584;2023-02-26T02:28:42;102358.72;;;-0.61;100.00
51687;BME280;37774;52.192;4.584;2023-02-26T02:31:17;102367.19;;;-0.75;100.00
51687;BME280;37774;52.192;4.584;2023-02-26T02:33:51;102314.22;;;-1.06;100.00
51687;BME280;37774;52.192;4.584;2023-02-26T02:36:23;102376.53;;;-0.89;100.00
51687;BME280;37774;52.192;4.584;2023-02-26T02:38:55;102381.25;;;-0.95;100.00
51687;BME280;37774;52.192;4.584;2023-02-26T02:41:26;102376.94;;;-0.83;100.00
51687;BME280;37774;52.192;4.584;2023-02-26T02:43:58;102209.72;;;-2.24;100.00
51687;BME280;37774;52.192;4.584;2023-02-26T02:46:30;102393.63;;;-0.88;100.00
51687;BME280;37774;52.192;4.584;2023-02-26T02:49:00;102153.63;;;-2.51;100.00
51687;BME280;37774;52.192;4.584;2023-02-26T02:51:31;102357.56;;;-1.20;100.00
51687;BME280;37774;52.192;4.584;2023-02-26T02:54:03;102045.09;;;-3.27;100.00
51687;BME280;37774;52.192;4.584;2023-02-26T02:56:34;102397.34;;;-0.96;100.00
51687;BME280;37774;52.192;4.584;2023-02-26T02:59:10;102402.06;;;-1.02;100.00
51687;BME280;37774;52.192;4.584;2023-02-26T03:01:41;102383.28;;;-1.30;100.00
51687;BME280;37774;52.192;4.584;2023-02-26T03:04:19;102412.75;;;-1.08;100.00
51687;BME280;37774;52.192;4.584;2023-02-26T03:06:46;101964.78;;;-3.62;100.00
51687;BME280;37774;52.192;4.584;2023-02-26T03:09:15;102353.81;;;-1.38;100.00
51687;BME280;37774;52.192;4.584;2023-02-26T03:11:41;102299.75;;;-1.85;100.00
51687;BME280;37774;52.192;4.584;2023-02-26T03:14:09;102337.13;;;-1.47;100.00
51687;BME280;37774;52.192;4.584;2023-02-26T03:16:55;102401.63;;;-1.09;100.00
51687;BME280;37774;52.192;4.584;2023-02-26T03:19:28;102409.81;;;-1.01;100.00
51687;BME280;37774;52.192;4.584;2023-02-26T03:22:02;102346.94;;;-1.53;100.00
51687;BME280;37774;52.192;4.584;2023-02-26T03:24:34;102419.00;;;-1.16;100.00
51687;BME280;37774;52.192;4.584;2023-02-26T03:27:09;101812.50;;;-4.84;100.00
51687;BME280;37774;52.192;4.584;2023-02-26T03:29:39;102401.78;;;-1.33;100.00
51687;BME280;37774;52.192;4.584;2023-02-26T03:32:14;102005.88;;;-3.68;100.00
51687;BME280;37774;52.192;4.584;2023-02-26T03:34:47;102420.94;;;-1.26;100.00
51687;BME280;37774;52.192;4.584;2023-02-26T03:37:19;102430.91;;;-1.04;100.00
51687;BME280;37774;52.192;4.584;2023-02-26T03:39:51;102315.41;;;-1.67;100.00
51687;BME280;37774;52.192;4.584;2023-02-26T03:42:22;102428.06;;;-0.95;100.00
51687;BME280;37774;52.192;4.584;2023-02-26T03:44:54;102087.16;;;-3.06;100.00
51687;BME280;37774;52.192;4.584;2023-02-26T03:47:25;102408.94;;;-1.01;100.00
51687;BME280;37774;52.192;4.584;2023-02-26T03:49:55;102435.06;;;-0.92;100.00
51687;BME280;37774;52.192;4.584;2023-02-26T03:52:26;102435.34;;;-0.88;100.00
51687;BME280;37774;52.192;4.584;2023-02-26T03:54:58;102350.56;;;-1.36;100.00
51687;BME280;37774;52.192;4.584;2023-02-26T03:57:26;102438.28;;;-0.81;100.00
51687;BME280;37774;52.192;4.584;2023-02-26T03:59:53;102437.63;;;-0.79;100.00
51687;BME280;37774;52.192;4.584;2023-02-26T04:02:28;102044.94;;;-3.16;100.00
51687;BME280;37774;52.192;4.584;2023-02-26T04:05:02;102443.38;;;-0.81;100.00
51687;BME280;37774;52.192;4.584;2023-02-26T04:07:32;102376.97;;;-1.35;100.00
51687;BME280;37774;52.192;4.584;2023-02-26T04:09:59;102448.03;;;-0.76;100.00
51687;BME280;37774;52.192;4.584;2023-02-26T04:12:27;102454.69;;;-0.78;100.00
51687;BME280;37774;52.192;4.584;2023-02-26T04:14:54;102272.50;;;-1.86;100.00
51687;BME280;37774;52.192;4.584;2023-02-26T04:17:22;101908.81;;;-4.25;100.00
51687;BME280;37774;52.192;4.584;2023-02-26T04:19:50;102428.25;;;-1.05;100.00
51687;BME280;37774;52.192;4.584;2023-02-26T04:22:17;102453.72;;;-0.80;100.00
51687;BME280;37774;52.192;4.584;2023-02-26T04:24:44;102464.59;;;-0.82;100.00
51687;BME280;37774;52.192;4.584;2023-02-26T04:27:10;102400.03;;;-1.34;100.00
51687;BME280;37774;52.192;4.584;2023-02-26T04:29:37;102136.72;;;-2.88;100.00
51687;BME280;37774;52.192;4.584;2023-02-26T04:32:04;102439.75;;;-0.98;100.00
51687;BME280;37774;52.192;4.584;2023-02-26T04:34:31;102471.25;;;-0.98;100.00
51687;BME280;37774;52.192;4.584;2023-02-26T04:36:59;102490.69;;;-1.00;100.00
51687;BME280;37774;52.192;4.584;2023-02-26T04:39:26;102479.09;;;-0.95;100.00
51687;BME280;37774;52.192;4.584;2023-02-26T04:41:53;101952.09;;;-4.23;100.00
51687;BME280;37774;52.192;4.584;2023-02-26T04:44:20;102220.06;;;-2.35;100.00
51687;BME280;37774;52.192;4.584;2023-02-26T04:46:47;102041.66;;;-3.64;100.00
51687;BME280;37774;52.192;4.584;2023-02-26T04:49:14;102398.78;;;-1.78;100.00
51687;BME280;37774;52.192;4.584;2023-02-26T04:51:41;102066.94;;;-3.54;100.00
51687;BME280;37774;52.192;4.584;2023-02-26T04:54:09;102160.59;;;-3.23;100.00
51687;BME280;37774;52.192;4.584;2023-02-26T04:56:36;102497.28;;;-0.90;100.00
51687;BME280;37774;52.192;4.584;2023-02-26T04:59:02;101950.69;;;-4.31;100.00
51687;BME280;37774;52.192;4.584;2023-02-26T05:01:30;102490.16;;;-1.08;100.00
51687;BME280;37774;52.192;4.584;2023-02-26T05:03:57;102177.50;;;-3.12;100.00
51687;BME280;37774;52.192;4.584;2023-02-26T05:06:24;102322.28;;;-2.16;100.00
51687;BME280;37774;52.192;4.584;2023-02-26T05:08:50;102165.44;;;-3.14;100.00
51687;BME280;37774;52.192;4.584;2023-02-26T05:11:19;102432.19;;;-1.36;100.00
51687;BME280;37774;52.192;4.584;2023-02-26T05:13:46;102512.03;;;-0.86;100.00
51687;BME280;37774;52.192;4.584;2023-02-26T05:16:13;102520.72;;;-0.96;100.00
51687;BME280;37774;52.192;4.584;2023-02-26T05:18:39;102535.25;;;-0.95;100.00
51687;BME280;37774;52.192;4.584;2023-02-26T05:21:06;102456.66;;;-1.51;100.00
51687;BME280;37774;52.192;4.584;2023-02-26T05:23:33;102452.31;;;-1.40;100.00
51687;BME280;37774;52.192;4.584;2023-02-26T05:26:01;102418.78;;;-1.58;100.00
51687;BME280;37774;52.192;4.584;2023-02-26T05:28:29;102387.97;;;-1.87;100.00
51687;BME280;37774;52.192;4.584;2023-02-26T05:30:56;102445.06;;;-1.59;100.00
51687;BME280;37774;52.192;4.584;2023-02-26T05:33:23;102284.53;;;-2.47;100.00
51687;BME280;37774;52.192;4.584;2023-02-26T05:35:51;101960.97;;;-4.65;100.00
51687;BME280;37774;52.192;4.584;2023-02-26T05:38:18;102426.91;;;-1.89;100.00
51687;BME280;37774;52.192;4.584;2023-02-26T05:40:45;101994.28;;;-4.49;100.00
51687;BME280;37774;52.192;4.584;2023-02-26T05:43:11;102267.53;;;-2.60;100.00
51687;BME280;37774;52.192;4.584;2023-02-26T05:45:40;102129.81;;;-3.75;100.00
51687;BME280;37774;52.192;4.584;2023-02-26T05:48:06;102469.59;;;-1.73;100.00
51687;BME280;37774;52.192;4.584;2023-02-26T05:50:35;102427.13;;;-1.98;100.00
51687;BME280;37774;52.192;4.584;2023-02-26T05:53:02;102569.06;;;-1.36;100.00
51687;BME280;37774;52.192;4.584;2023-02-26T05:55:29;102036.84;;;-4.45;100.00
51687;BME280;37774;52.192;4.584;2023-02-26T05:57:56;102115.22;;;-4.37;100.00
51687;BME280;37774;52.192;4.584;2023-02-26T06:00:23;102177.31;;;-3.74;100.00
51687;BME280;37774;52.192;4.584;2023-02-26T06:02:51;101993.00;;;-4.90;100.00
51687;BME280;37774;52.192;4.584;2023-02-26T06:05:18;102570.53;;;-1.52;100.00
51687;BME280;37774;52.192;4.584;2023-02-26T06:07:45;102584.28;;;-1.50;100.00
51687;BME280;37774;52.192;4.584;2023-02-26T06:10:12;102592.59;;;-1.64;100.00
51687;BME280;37774;52.192;4.584;2023-02-26T06:12:39;102321.13;;;-3.42;100.00
51687;BME280;37774;52.192;4.584;2023-02-26T06:15:07;102626.09;;;-1.71;100.00
51687;BME280;37774;52.192;4.584;2023-02-26T06:17:34;102620.56;;;-1.66;100.00
51687;BME280;37774;52.192;4.584;2023-02-26T06:20:04;102285.66;;;-3.29;100.00
51687;BME280;37774;52.192;4.584;2023-02-26T06:22:31;102164.50;;;-3.88;100.00
51687;BME280;37774;52.192;4.584;2023-02-26T06:24:58;102551.16;;;-1.62;100.00
51687;BME280;37774;52.192;4.584;2023-02-26T06:27:25;102373.44;;;-2.86;100.00
51687;BME280;37774;52.192;4.584;2023-02-26T06:29:52;102378.94;;;-2.32;100.00
51687;BME280;37774;52.192;4.584;2023-02-26T06:32:19;102483.75;;;-2.14;100.00
51687;BME280;37774;52.192;4.584;2023-02-26T06:34:46;102606.53;;;-0.98;100.00
51687;BME280;37774;52.192;4.584;2023-02-26T06:37:14;102016.56;;;-4.45;100.00
51687;BME280;37774;52.192;4.584;2023-02-26T06:39:41;102410.13;;;-2.23;100.00
51687;BME280;37774;52.192;4.584;2023-02-26T06:42:08;102629.50;;;-0.98;100.00
51687;BME280;37774;52.192;4.584;2023-02-26T06:44:35;102232.81;;;-3.57;100.00
51687;BME280;37774;52.192;4.584;2023-02-26T06:47:02;102636.63;;;-1.06;100.00
51687;BME280;37774;52.192;4.584;2023-02-26T06:49:29;102638.81;;;-0.98;100.00
51687;BME280;37774;52.192;4.584;2023-02-26T06:51:57;102660.34;;;-1.07;100.00
51687;BME280;37774;52.192;4.584;2023-02-26T06:54:25;102421.00;;;-2.50;100.00
51687;BME280;37774;52.192;4.584;2023-02-26T06:56:51;102525.06;;;-1.95;100.00
51687;BME280;37774;52.192;4.584;2023-02-26T06:59:22;102643.97;;;-1.10;100.00
51687;BME280;37774;52.192;4.584;2023-02-26T07:01:49;102411.06;;;-2.70;100.00
51687;BME280;37774;52.192;4.584;2023-02-26T07:04:16;102668.13;;;-1.05;100.00
51687;BME280;37774;52.192;4.584;2023-02-26T07:06:43;102574.66;;;-1.78;100.00
51687;BME280;37774;52.192;4.584;2023-02-26T07:09:09;102546.31;;;-1.82;100.00
51687;BME280;37774;52.192;4.584;2023-02-26T07:11:38;102690.97;;;-0.95;100.00
51687;BME280;37774;52.192;4.584;2023-02-26T07:14:05;102473.81;;;-2.23;100.00
51687;BME280;37774;52.192;4.584;2023-02-26T07:16:32;102607.81;;;-1.54;100.00
51687;BME280;37774;52.192;4.584;2023-02-26T07:18:59;102564.72;;;-1.86;100.00
51687;BME280;37774;52.192;4.584;2023-02-26T07:21:26;102508.59;;;-2.36;100.00
51687;BME280;37774;52.192;4.584;2023-02-26T07:23:52;102293.03;;;-3.56;100.00
51687;BME280;37774;52.192;4.584;2023-02-26T07:26:19;102357.16;;;-3.24;100.00
51687;BME280;37774;52.192;4.584;2023-02-26T07:28:47;102115.06;;;-4.85;100.00
51687;BME280;37774;52.192;4.584;2023-02-26T07:31:14;102687.94;;;-1.50;100.00
51687;BME280;37774;52.192;4.584;2023-02-26T07:33:42;102642.94;;;-1.73;100.00
51687;BME280;37774;52.192;4.584;2023-02-26T07:36:09;102556.75;;;-1.91;100.00
51687;BME280;37774;52.192;4.584;2023-02-26T07:38:36;102709.81;;;-0.93;100.00
51687;BME280;37774;52.192;4.584;2023-02-26T07:41:03;102326.13;;;-3.08;100.00
51687;BME280;37774;52.192;4.584;2023-02-26T07:43:30;102607.25;;;-1.50;100.00
51687;BME280;37774;52.192;4.584;2023-02-26T07:45:58;102390.38;;;-2.75;100.00
51687;BME280;37774;52.192;4.584;2023-02-26T07:48:25;102312.84;;;-3.04;100.00
51687;BME280;37774;52.192;4.584;2023-02-26T07:50:52;102418.00;;;-2.32;100.00
51687;BME280;37774;52.192;4.584;2023-02-26T07:53:20;102115.03;;;-4.05;100.00
51687;BME280;37774;52.192;4.584;2023-02-26T07:55:47;102625.03;;;-1.26;100.00
51687;BME280;37774;52.192;4.584;2023-02-26T07:58:14;102285.41;;;-3.08;100.00
51687;BME280;37774;52.192;4.584;2023-02-26T08:00:41;102295.97;;;-2.66;100.00
51687;BME280;37774;52.192;4.584;2023-02-26T08:03:09;102219.66;;;-2.78;100.00
51687;BME280;37774;52.192;4.584;2023-02-26T08:05:36;102567.44;;;-0.71;100.00
51687;BME280;37774;52.192;4.584;2023-02-26T08:08:03;102726.94;;;0.50;100.00
51687;BME280;37774;52.192;4.584;2023-02-26T08:10:30;102386.06;;;-1.52;100.00
51687;BME280;37774;52.192;4.584;2023-02-26T08:12:57;102387.59;;;-1.29;100.00
51687;BME280;37774;52.192;4.584;2023-02-26T08:15:24;102230.28;;;-2.21;100.00
51687;BME280;37774;52.192;4.584;2023-02-26T08:17:54;102350.72;;;-1.59;100.00
51687;BME280;37774;52.192;4.584;2023-02-26T08:20:23;102561.41;;;-0.33;100.00
51687;BME280;37774;52.192;4.584;2023-02-26T08:22:50;102704.88;;;0.79;100.00
51687;BME280;37774;52.192;4.584;2023-02-26T08:25:17;102341.75;;;-1.41;100.00
51687;BME280;37774;52.192;4.584;2023-02-26T08:27:44;102410.91;;;-0.84;100.00
51687;BME280;37774;52.192;4.584;2023-02-26T08:30:12;102647.13;;;0.56;100.00
51687;BME280;37774;52.192;4.584;2023-02-26T08:32:39;102311.91;;;-1.55;100.00
51687;BME280;37774;52.192;4.584;2023-02-26T08:35:07;102346.78;;;-1.29;100.00
51687;BME280;37774;52.192;4.584;2023-02-26T08:37:36;102673.41;;;0.67;100.00
51687;BME280;37774;52.192;4.584;2023-02-26T08:40:04;102643.59;;;0.54;100.00
51687;BME280;37774;52.192;4.584;2023-02-26T08:42:31;102418.56;;;-0.97;100.00
51687;BME280;37774;52.192;4.584;2023-02-26T08:44:58;102235.78;;;-1.76;100.00
51687;BME280;37774;52.192;4.584;2023-02-26T08:47:25;102483.59;;;-0.38;100.00
51687;BME280;37774;52.192;4.584;2023-02-26T08:49:52;102590.91;;;0.16;100.00
51687;BME280;37774;52.192;4.584;2023-02-26T08:52:19;102407.44;;;-0.84;100.00
51687;BME280;37774;52.192;4.584;2023-02-26T08:54:48;102685.56;;;0.98;100.00
51687;BME280;37774;52.192;4.584;2023-02-26T08:57:15;102372.22;;;-0.77;100.00
51687;BME280;37774;52.192;4.584;2023-02-26T08:59:42;102763.38;;;1.57;100.00
51687;BME280;37774;52.192;4.584;2023-02-26T09:02:09;102767.63;;;1.56;100.00
51687;BME280;37774;52.192;4.584;2023-02-26T09:04:37;102322.44;;;-1.24;100.00
51687;BME280;37774;52.192;4.584;2023-02-26T09:07:04;102579.63;;;0.54;100.00
51687;BME280;37774;52.192;4.584;2023-02-26T09:09:31;102785.19;;;1.79;100.00
51687;BME280;37774;52.192;4.584;2023-02-26T09:11:59;102702.94;;;1.04;100.00
51687;BME280;37774;52.192;4.584;2023-02-26T09:14:26;102609.44;;;0.67;100.00
51687;BME280;37774;52.192;4.584;2023-02-26T09:16:53;102781.16;;;1.97;100.00
51687;BME280;37774;52.192;4.584;2023-02-26T09:19:20;102783.63;;;1.81;100.00
51687;BME280;37774;52.192;4.584;2023-02-26T09:21:47;102412.56;;;-0.44;100.00
51687;BME280;37774;52.192;4.584;2023-02-26T09:24:13;102697.94;;;1.34;100.00
51687;BME280;37774;52.192;4.584;2023-02-26T09:26:40;102693.47;;;1.16;100.00
51687;BME280;37774;52.192;4.584;2023-02-26T09:29:09;102811.50;;;2.04;100.00
51687;BME280;37774;52.192;4.584;2023-02-26T09:31:37;102658.44;;;1.01;100.00
51687;BME280;37774;52.192;4.584;2023-02-26T09:34:04;102657.72;;;1.17;100.00
51687;BME280;37774;52.192;4.584;2023-02-26T09:36:31;102828.72;;;1.92;100.00
51687;BME280;37774;52.192;4.584;2023-02-26T09:38:58;102674.28;;;1.53;100.00
51687;BME280;37774;52.192;4.584;2023-02-26T09:41:27;102643.88;;;1.29;100.00
51687;BME280;37774;52.192;4.584;2023-02-26T09:46:50;102774.97;;;2.39;100.00
51687;BME280;37774;52.192;4.584;2023-02-26T09:49:25;102823.84;;;2.40;100.00
51687;BME280;37774;52.192;4.584;2023-02-26T09:51:57;102828.25;;;2.43;100.00
51687;BME280;37774;52.192;4.584;2023-02-26T09:54:40;102794.88;;;2.13;100.00
51687;BME280;37774;52.192;4.584;2023-02-26T09:57:14;102729.16;;;1.85;100.00
51687;BME280;37774;52.192;4.584;2023-02-26T09:59:46;102318.06;;;-0.44;100.00
51687;BME280;37774;52.192;4.584;2023-02-26T10:02:17;102834.22;;;3.03;100.00
51687;BME280;37774;52.192;4.584;2023-02-26T10:04:56;102776.28;;;2.77;100.00
51687;BME280;37774;52.192;4.584;2023-02-26T10:07:33;102474.34;;;0.76;100.00
51687;BME280;37774;52.192;4.584;2023-02-26T10:10:07;102834.19;;;3.18;100.00
51687;BME280;37774;52.192;4.584;2023-02-26T10:12:40;102836.94;;;3.21;100.00
51687;BME280;37774;52.192;4.584;2023-02-26T10:15:11;102834.63;;;3.26;100.00
51687;BME280;37774;52.192;4.584;2023-02-26T10:17:50;102674.50;;;2.31;100.00
51687;BME280;37774;52.192;4.584;2023-02-26T10:20:22;102795.66;;;2.87;100.00
51687;BME280;37774;52.192;4.584;2023-02-26T10:22:56;102841.38;;;3.24;100.00
51687;BME280;37774;52.192;4.584;2023-02-26T10:25:28;102786.09;;;2.84;100.00
51687;BME280;37774;52.192;4.584;2023-02-26T10:27:59;102851.03;;;3.28;100.00
51687;BME280;37774;52.192;4.584;2023-02-26T10:30:34;102785.19;;;2.84;100.00
51687;BME280;37774;52.192;4.584;2023-02-26T10:33:11;102700.56;;;2.39;100.00
51687;BME280;37774;52.192;4.584;2023-02-26T10:35:45;102811.41;;;2.93;100.00
51687;BME280;37774;52.192;4.584;2023-02-26T10:38:15;102576.31;;;1.42;100.00
51687;BME280;37774;52.192;4.584;2023-02-26T10:40:48;102639.22;;;2.12;100.00
51687;BME280;37774;52.192;4.584;2023-02-26T10:43:20;102730.72;;;2.58;100.00
51687;BME280;37774;52.192;4.584;2023-02-26T10:45:57;102730.91;;;2.61;100.00
51687;BME280;37774;52.192;4.584;2023-02-26T10:48:39;102841.28;;;3.22;100.00
51687;BME280;37774;52.192;4.584;2023-02-26T10:51:13;102868.00;;;3.58;100.00
51687;BME280;37774;52.192;4.584;2023-02-26T10:53:42;102743.25;;;2.83;100.00
51687;BME280;37774;52.192;4.584;2023-02-26T10:56:15;102435.78;;;1.03;100.00
51687;BME280;37774;52.192;4.584;2023-02-26T10:58:44;102831.34;;;3.29;100.00
51687;BME280;37774;52.192;4.584;2023-02-26T11:01:15;102875.50;;;3.70;100.00
51687;BME280;37774;52.192;4.584;2023-02-26T11:03:46;102804.53;;;3.40;100.00
51687;BME280;37774;52.192;4.584;2023-02-26T11:06:18;102556.47;;;1.99;100.00
51687;BME280;37774;52.192;4.584;2023-02-26T11:08:48;102706.72;;;2.89;100.00
51687;BME280;37774;52.192;4.584;2023-02-26T11:11:40;102849.69;;;3.68;100.00
51687;BME280;37774;52.192;4.584;2023-02-26T11:14:08;102748.06;;;3.25;100.00
51687;BME280;37774;52.192;4.584;2023-02-26T11:16:42;102786.34;;;3.20;100.00
51687;BME280;37774;52.192;4.584;2023-02-26T11:19:14;102757.59;;;2.80;100.00
51687;BME280;37774;52.192;4.584;2023-02-26T11:21:44;102740.22;;;2.90;100.00
51687;BME280;37774;52.192;4.584;2023-02-26T11:24:16;102878.56;;;3.79;100.00
51687;BME280;37774;52.192;4.584;2023-02-26T11:26:46;102755.97;;;2.97;100.00
51687;BME280;37774;52.192;4.584;2023-02-26T11:29:15;102781.06;;;3.34;100.00
51687;BME280;37774;52.192;4.584;2023-02-26T11:31:47;102533.44;;;1.69;100.00
51687;BME280;37774;52.192;4.584;2023-02-26T11:34:21;102844.75;;;3.88;100.00
51687;BME280;37774;52.192;4.584;2023-02-26T11:36:49;102743.78;;;3.26;100.00
51687;BME280;37774;52.192;4.584;2023-02-26T11:39:20;102736.41;;;3.32;100.00
51687;BME280;37774;52.192;4.584;2023-02-26T11:41:48;102816.03;;;3.80;100.00
51687;BME280;37774;52.192;4.584;2023-02-26T11:44:18;102451.28;;;1.66;100.00
51687;BME280;37774;52.192;4.584;2023-02-26T11:46:51;102918.72;;;4.25;100.00
51687;BME280;37774;52.192;4.584;2023-02-26T11:49:22;102796.75;;;3.72;100.00
51687;BME280;37774;52.192;4.584;2023-02-26T11:52:03;102492.38;;;1.84;100.00
51687;BME280;37774;52.192;4.584;2023-02-26T11:54:34;102879.06;;;4.05;100.00
51687;BME280;37774;52.192;4.584;2023-02-26T11:57:04;102772.22;;;3.29;100.00
51687;BME280;37774;52.192;4.584;2023-02-26T11:59:33;102882.84;;;4.12;100.00
51687;BME280;37774;52.192;4.584;2023-02-26T12:02:05;102565.72;;;2.12;100.00
51687;BME280;37774;52.192;4.584;2023-02-26T12:04:43;102885.31;;;4.10;100.00
51687;BME280;37774;52.192;4.584;2023-02-26T12:07:12;102354.31;;;1.11;100.00
51687;BME280;37774;52.192;4.584;2023-02-26T12:09:41;102592.13;;;2.58;100.00
51687;BME280;37774;52.192;4.584;2023-02-26T12:12:17;102721.16;;;3.35;100.00
51687;BME280;37774;52.192;4.584;2023-02-26T12:17:47;102865.03;;;4.49;100.00
51687;BME280;37774;52.192;4.584;2023-02-26T12:20:23;102555.31;;;2.74;100.00
51687;BME280;37774;52.192;4.584;2023-02-26T12:23:03;102538.88;;;2.22;100.00
51687;BME280;37774;52.192;4.584;2023-02-26T12:25:54;102729.97;;;3.57;100.00
51687;BME280;37774;52.192;4.584;2023-02-26T12:28:47;102873.91;;;4.38;100.00
51687;BME280;37774;52.192;4.584;2023-02-26T12:31:31;102871.03;;;4.50;100.00
51687;BME280;37774;52.192;4.584;2023-02-26T12:34:17;102846.09;;;4.49;100.00
51687;BME280;37774;52.192;4.584;2023-02-26T12:37:03;102883.59;;;4.44;100.00
51687;BME280;37774;52.192;4.584;2023-02-26T12:39:44;102809.25;;;4.32;100.00
51687;BME280;37774;52.192;4.584;2023-02-26T12:42:23;102471.97;;;2.17;100.00
51687;BME280;37774;52.192;4.584;2023-02-26T12:45:06;102642.78;;;3.27;100.00
51687;BME280;37774;52.192;4.584;2023-02-26T12:47:42;102857.16;;;4.46;100.00
51687;BME280;37774;52.192;4.584;2023-02-26T12:50:38;102815.75;;;4.25;100.00
51687;BME280;37774;52.192;4.584;2023-02-26T12:53:49;102781.97;;;3.68;100.00
51687;BME280;37774;52.192;4.584;2023-02-26T12:56:39;102849.13;;;4.23;100.00
51687;BME280;37774;52.192;4.584;2023-02-26T12:59:22;102431.75;;;1.85;100.00
51687;BME280;37774;52.192;4.584;2023-02-26T13:02:03;102595.34;;;2.39;100.00
51687;BME280;37774;52.192;4.584;2023-02-26T13:05:03;102876.97;;;4.31;100.00
51687;BME280;37774;52.192;4.584;2023-02-26T13:07:56;102833.78;;;4.25;100.00
51687;BME280;37774;52.192;4.584;2023-02-26T13:10:38;102870.38;;;4.54;100.00